createdAt,value
2023-01-08T00:02:49.999Z,99.90
2023-01-08T00:05:53.291Z,99.90
2023-01-08T00:08:56.459Z,99.90
2023-01-08T00:11:59.597Z,99.90
2023-01-08T00:15:04.181Z,99.90
2023-01-08T00:18:07.360Z,99.90
2023-01-08T00:21:10.804Z,99.90
2023-01-08T00:24:13.926Z,99.90
2023-01-08T00:27:17.054Z,99.90
2023-01-08T00:30:21.590Z,99.90
2023-01-08T00:33:24.760Z,99.90
2023-01-08T00:36:28.023Z,99.90
2023-01-08T00:39:31.190Z,99.90
2023-01-08T00:42:34.329Z,99.90
2023-01-08T00:45:38.873Z,99.90
2023-01-08T00:48:42.117Z,99.90
2023-01-08T00:51:45.304Z,99.90
2023-01-08T00:54:48.431Z,99.90
2023-01-08T00:57:51.614Z,99.90
2023-01-08T01:00:56.174Z,99.90
2023-01-08T01:03:59.381Z,99.90
2023-01-08T01:07:02.533Z,99.90
2023-01-08T01:10:06.479Z,99.90
2023-01-08T01:13:09.710Z,99.90
2023-01-08T01:16:14.240Z,99.90
2023-01-08T01:19:19.028Z,99.90
2023-01-08T01:22:22.147Z,99.90
2023-01-08T01:25:25.304Z,99.90
2023-01-08T01:28:28.449Z,99.90
2023-01-08T01:31:33.497Z,99.90
2023-01-08T01:34:36.781Z,99.90
2023-01-08T01:37:39.912Z,99.90
2023-01-08T01:40:43.431Z,99.90
2023-01-08T01:43:46.581Z,99.90
2023-01-08T01:46:51.609Z,99.90
2023-01-08T01:49:59.719Z,99.90
2023-01-08T01:53:06.801Z,99.90
2023-01-08T01:56:10.760Z,99.90
2023-01-08T01:59:14.735Z,99.90
2023-01-08T02:02:21.998Z,99.90
2023-01-08T02:05:33.396Z,99.90
2023-01-08T02:08:43.502Z,99.90
2023-01-08T02:12:11.541Z,99.90
2023-01-08T02:15:22.160Z,99.90
2023-01-08T02:18:32.527Z,99.90
2023-01-08T02:21:50.510Z,99.90
2023-01-08T02:24:57.452Z,99.90
2023-01-08T02:28:03.393Z,99.90
2023-01-08T02:31:08.033Z,99.90
2023-01-08T02:34:12.431Z,99.90
2023-01-08T02:37:15.769Z,99.90
2023-01-08T02:40:26.017Z,99.90
2023-01-08T02:43:37.904Z,99.90
2023-01-08T02:46:43.098Z,99.90
2023-01-08T02:49:51.868Z,99.90
2023-01-08T02:53:02.319Z,99.90
2023-01-08T02:56:09.369Z,99.90
2023-01-08T02:59:15.475Z,99.90
2023-01-08T03:02:19.041Z,99.90
2023-01-08T03:05:27.294Z,99.90
2023-01-08T03:08:31.295Z,99.90
2023-01-08T03:11:40.350Z,99.90
2023-01-08T03:14:49.019Z,99.90
2023-01-08T03:17:55.024Z,99.90
2023-01-08T03:20:58.350Z,99.90
2023-01-08T03:24:02.374Z,99.90
2023-01-08T03:27:08.124Z,99.90
2023-01-08T03:30:13.966Z,99.90
2023-01-08T03:33:19.046Z,99.90
2023-01-08T03:36:25.624Z,99.90
2023-01-08T03:39:32.416Z,99.90
2023-01-08T03:42:35.651Z,99.90
2023-01-08T03:45:46.017Z,99.90
2023-01-08T03:48:50.551Z,99.90
2023-01-08T03:51:53.702Z,99.90
2023-01-08T03:54:57.183Z,99.90
2023-01-08T03:58:00.298Z,99.90
2023-01-08T04:01:04.911Z,99.90
2023-01-08T04:04:08.385Z,99.90
2023-01-08T04:07:12.242Z,99.90
2023-01-08T04:10:15.438Z,99.90
2023-01-08T04:13:18.585Z,99.90
2023-01-08T04:16:23.145Z,99.90
2023-01-08T04:19:26.313Z,99.90
2023-01-08T04:22:29.413Z,99.90
2023-01-08T04:25:32.530Z,99.90
2023-01-08T04:28:36.051Z,99.90
2023-01-08T04:31:40.599Z,99.90
2023-01-08T04:34:43.737Z,99.90
2023-01-08T04:37:46.872Z,99.90
2023-01-08T04:40:49.984Z,99.90
2023-01-08T04:43:53.113Z,99.90
2023-01-08T04:46:57.603Z,99.90
2023-01-08T04:50:00.813Z,99.90
2023-01-08T04:53:03.952Z,99.90
2023-01-08T04:56:08.737Z,99.90
2023-01-08T04:59:11.863Z,99.90
2023-01-08T05:02:16.546Z,99.90
2023-01-08T05:05:19.837Z,99.90
2023-01-08T05:08:22.955Z,99.90
2023-01-08T05:11:26.647Z,99.90
2023-01-08T05:14:29.735Z,99.90
2023-01-08T05:17:34.255Z,99.90
2023-01-08T05:20:37.388Z,99.90
2023-01-08T05:23:40.550Z,99.90
2023-01-08T05:26:43.666Z,99.90
2023-01-08T05:29:46.765Z,99.90
2023-01-08T05:32:51.248Z,99.90
2023-01-08T05:35:54.655Z,99.90
2023-01-08T05:38:57.847Z,99.90
2023-01-08T05:42:00.942Z,99.90
2023-01-08T05:45:04.152Z,99.90
2023-01-08T05:48:09.204Z,99.90
2023-01-08T05:51:12.319Z,99.90
2023-01-08T05:54:15.524Z,99.90
2023-01-08T05:57:18.692Z,99.90
2023-01-08T06:00:21.967Z,99.90
2023-01-08T06:03:26.477Z,99.90
2023-01-08T06:06:29.672Z,99.90
2023-01-08T06:09:32.787Z,99.90
2023-01-08T06:12:35.869Z,99.90
2023-01-08T06:15:40.082Z,99.90
2023-01-08T06:18:44.728Z,99.90
2023-01-08T06:21:47.905Z,99.90
2023-01-08T06:24:51.040Z,99.90
2023-01-08T06:27:54.417Z,99.90
2023-01-08T06:30:58.967Z,99.90
2023-01-08T06:34:03.703Z,99.90
2023-01-08T06:37:06.903Z,99.90
2023-01-08T06:40:11.263Z,99.90
2023-01-08T06:43:14.481Z,99.90
2023-01-08T06:46:17.656Z,99.90
2023-01-08T06:49:22.746Z,99.90
2023-01-08T06:52:25.910Z,99.90
2023-01-08T06:55:30.220Z,99.90
2023-01-08T06:58:33.322Z,99.90
2023-01-08T07:01:36.547Z,99.90
2023-01-08T07:04:41.121Z,99.90
2023-01-08T07:07:44.257Z,99.90
2023-01-08T07:10:47.426Z,99.90
2023-01-08T07:13:50.827Z,99.90
2023-01-08T07:16:54.008Z,99.90
2023-01-08T07:19:58.494Z,99.90
2023-01-08T07:23:03.447Z,99.90
2023-01-08T07:26:08.553Z,99.90
2023-01-08T07:29:11.727Z,99.90
2023-01-08T07:32:14.845Z,99.90
2023-01-08T07:35:19.464Z,99.90
2023-01-08T07:38:22.730Z,99.90
2023-01-08T07:41:25.873Z,99.90
2023-01-08T07:44:29.074Z,99.90
2023-01-08T07:47:32.305Z,99.90
2023-01-08T07:50:39.413Z,99.90
2023-01-08T07:53:43.935Z,99.90
2023-01-08T07:56:47.324Z,99.90
2023-01-08T07:59:50.500Z,99.90
2023-01-08T08:02:53.718Z,99.90
2023-01-08T08:05:58.287Z,99.90
2023-01-08T08:09:01.419Z,99.90
2023-01-08T08:12:04.880Z,99.90
2023-01-08T08:15:09.530Z,99.90
2023-01-08T08:18:12.759Z,99.90
2023-01-08T08:21:17.291Z,99.90
2023-01-08T08:24:20.426Z,99.90
2023-01-08T08:27:24.786Z,99.90
2023-01-08T08:30:29.208Z,99.90
2023-01-08T08:33:32.499Z,99.90
2023-01-08T08:36:37.082Z,99.90
2023-01-08T08:39:40.237Z,99.90
2023-01-08T08:42:43.428Z,99.90
2023-01-08T08:45:46.840Z,99.90
2023-01-08T08:48:50.051Z,99.90
2023-01-08T08:51:54.628Z,99.90
2023-01-08T08:54:57.819Z,99.90
2023-01-08T08:58:06.354Z,99.90
2023-01-08T09:01:09.728Z,99.90
2023-01-08T09:04:12.940Z,99.90
2023-01-08T09:07:17.907Z,99.90
2023-01-08T09:10:21.272Z,99.90
2023-01-08T09:13:24.685Z,99.90
2023-01-08T09:16:27.937Z,99.90
2023-01-08T09:19:31.154Z,99.90
2023-01-08T09:22:35.696Z,99.90
2023-01-08T09:25:39.455Z,99.90
2023-01-08T09:28:42.652Z,99.90
2023-01-08T09:31:46.795Z,99.90
2023-01-08T09:34:50.064Z,99.90
2023-01-08T09:37:55.208Z,99.90
2023-01-08T09:41:04.739Z,99.90
2023-01-08T09:44:08.737Z,99.90
2023-01-08T09:47:22.386Z,99.90
2023-01-08T09:50:28.882Z,99.90
2023-01-08T09:53:34.669Z,99.90
2023-01-08T09:56:38.733Z,99.90
2023-01-08T09:59:42.235Z,99.90
2023-01-08T10:02:46.253Z,99.90
2023-01-08T10:05:49.586Z,99.90
2023-01-08T10:08:54.267Z,99.90
2023-01-08T10:12:01.556Z,99.90
2023-01-08T10:15:07.673Z,99.90
2023-01-08T10:18:14.701Z,99.90
2023-01-08T10:21:19.107Z,99.90
2023-01-08T10:24:35.676Z,99.90
2023-01-08T10:27:47.584Z,99.90
2023-01-08T10:30:52.544Z,99.90
2023-01-08T10:33:55.741Z,99.90
2023-01-08T10:36:58.916Z,99.90
2023-01-08T10:40:08.918Z,99.90
2023-01-08T10:43:16.340Z,99.90
2023-01-08T10:46:24.245Z,99.90
2023-01-08T10:49:33.392Z,99.90
2023-01-08T10:52:36.745Z,99.90
2023-01-08T10:55:41.280Z,99.90
2023-01-08T10:58:44.747Z,99.90
2023-01-08T11:01:48.865Z,99.90
2023-01-08T11:04:53.450Z,99.90
2023-01-08T11:07:59.250Z,99.90
2023-01-08T11:11:03.965Z,99.90
2023-01-08T11:14:18.132Z,99.90
2023-01-08T11:17:21.409Z,99.90
2023-01-08T11:20:29.490Z,99.90
2023-01-08T11:23:32.836Z,99.90
2023-01-08T11:26:39.801Z,99.80
2023-01-08T11:29:46.853Z,97.80
2023-01-08T11:32:54.935Z,96.70
2023-01-08T11:36:05.807Z,98.00
2023-01-08T11:39:10.719Z,98.60
2023-01-08T11:42:35.048Z,98.60
2023-01-08T11:45:49.114Z,96.20
2023-01-08T11:49:15.066Z,85.80
2023-01-08T11:52:35.017Z,69.80
2023-01-08T11:55:49.330Z,57.20
2023-01-08T11:59:07.504Z,55.10
2023-01-08T12:02:22.268Z,54.90
2023-01-08T12:05:31.651Z,50.30
2023-01-08T12:08:42.408Z,47.20
2023-01-08T12:11:52.960Z,46.70
2023-01-08T12:15:10.808Z,47.80
2023-01-08T12:18:27.317Z,50.80
2023-01-08T12:21:33.784Z,53.30
2023-01-08T12:24:53.816Z,55.50
2023-01-08T12:28:16.797Z,57.20
2023-01-08T12:31:37.854Z,59.20
2023-01-08T12:34:50.657Z,61.30
2023-01-08T12:37:58.737Z,64.50
2023-01-08T12:41:06.114Z,66.90
2023-01-08T12:44:12.645Z,68.50
2023-01-08T12:47:22.197Z,70.80
2023-01-08T12:50:47.722Z,72.80
2023-01-08T12:53:59.291Z,74.60
2023-01-08T12:57:09.381Z,75.70
2023-01-08T13:00:20.792Z,78.30
2023-01-08T13:03:28.896Z,81.80
2023-01-08T13:06:32.520Z,84.30
2023-01-08T13:09:35.745Z,87.70
2023-01-08T13:12:43.682Z,90.10
2023-01-08T13:15:46.941Z,90.50
2023-01-08T13:18:56.801Z,91.30
2023-01-08T13:22:02.184Z,91.90
2023-01-08T13:25:33.015Z,92.40
2023-01-08T13:28:44.799Z,92.80
2023-01-08T13:31:48.005Z,93.40
2023-01-08T13:35:03.374Z,93.60
2023-01-08T13:38:14.918Z,94.00
2023-01-08T13:41:28.048Z,94.30
2023-01-08T13:44:34.557Z,94.70
2023-01-08T13:47:44.171Z,95.00
2023-01-08T13:50:49.075Z,95.20
2023-01-08T13:53:52.822Z,95.60
2023-01-08T13:57:04.163Z,95.70
2023-01-08T14:00:09.885Z,95.90
2023-01-08T14:03:23.933Z,96.10
2023-01-08T14:06:31.484Z,96.50
2023-01-08T14:09:34.809Z,96.60
2023-01-08T14:12:38.096Z,97.00
2023-01-08T14:15:41.400Z,97.10
2023-01-08T14:18:45.891Z,97.40
2023-01-08T14:21:51.897Z,97.70
2023-01-08T14:24:57.592Z,97.70
2023-01-08T14:28:03.007Z,98.00
2023-01-08T14:31:06.518Z,98.20
2023-01-08T14:34:11.629Z,98.30
2023-01-08T14:37:17.658Z,98.60
2023-01-08T14:40:31.171Z,98.70
2023-01-08T14:43:36.551Z,99.00
2023-01-08T14:46:39.738Z,99.00
2023-01-08T14:49:44.741Z,99.20
2023-01-08T14:52:50.657Z,99.50
2023-01-08T14:55:57.705Z,99.70
2023-01-08T14:59:01.525Z,99.80
2023-01-08T15:02:07.232Z,99.90
2023-01-08T15:05:20.569Z,99.90
2023-01-08T15:08:27.483Z,99.90
2023-01-08T15:11:32.591Z,99.90
2023-01-08T15:14:37.148Z,99.90
2023-01-08T15:17:42.148Z,99.90
2023-01-08T15:20:46.426Z,99.90
2023-01-08T15:23:54.832Z,99.90
2023-01-08T15:26:59.087Z,99.90
2023-01-08T15:30:04.119Z,99.90
2023-01-08T15:33:09.336Z,99.90
2023-01-08T15:36:12.683Z,99.90
2023-01-08T15:39:17.344Z,99.90
2023-01-08T15:42:40.444Z,99.90
2023-01-08T15:45:45.228Z,99.90
2023-01-08T15:48:48.424Z,99.90
2023-01-08T15:51:53.214Z,99.90
2023-01-08T15:54:58.604Z,99.90
2023-01-08T15:58:01.898Z,99.90
2023-01-08T16:01:05.642Z,99.90
2023-01-08T16:04:09.353Z,99.90
2023-01-08T16:07:12.974Z,99.90
2023-01-08T16:10:19.048Z,99.90
2023-01-08T16:13:22.393Z,99.90
2023-01-08T16:16:25.678Z,99.90
2023-01-08T16:19:31.914Z,99.90
2023-01-08T16:22:35.341Z,99.90
2023-01-08T16:25:41.886Z,99.90
2023-01-08T16:28:46.005Z,99.90
2023-01-08T16:31:50.537Z,99.90
2023-01-08T16:34:55.006Z,99.90
2023-01-08T16:37:58.920Z,99.90
2023-01-08T16:41:05.838Z,99.90
2023-01-08T16:44:18.189Z,99.90
2023-01-08T16:47:22.137Z,99.90
2023-01-08T16:50:26.145Z,99.90
2023-01-08T16:53:29.993Z,99.90
2023-01-08T16:56:35.031Z,99.90
2023-01-08T16:59:38.681Z,99.90
2023-01-08T17:02:42.160Z,99.90
2023-01-08T17:05:45.944Z,99.90
2023-01-08T17:08:49.886Z,99.90
2023-01-08T17:11:55.193Z,99.90
2023-01-08T17:14:58.658Z,99.90
2023-01-08T17:18:02.457Z,99.90
2023-01-08T17:21:06.518Z,99.90
2023-01-08T17:24:10.569Z,99.90
2023-01-08T17:27:15.529Z,99.90
2023-01-08T17:30:19.127Z,99.90
2023-01-08T17:33:22.625Z,99.90
2023-01-08T17:36:27.728Z,99.90
2023-01-08T17:39:31.710Z,99.90
2023-01-08T17:42:37.026Z,99.90
2023-01-08T17:45:40.861Z,99.90
2023-01-08T17:48:47.003Z,99.90
2023-01-08T17:55:10.214Z,99.90
2023-01-08T17:58:15.859Z,99.90
2023-01-08T18:01:20.051Z,99.90
2023-01-08T18:04:23.730Z,99.90
2023-01-08T18:07:27.746Z,99.90
2023-01-08T18:10:34.047Z,99.90
2023-01-08T18:13:40.841Z,99.90
2023-01-08T18:16:45.684Z,99.90
2023-01-08T18:19:49.866Z,99.90
2023-01-08T18:22:54.395Z,99.90
2023-01-08T18:25:58.571Z,99.90
2023-01-08T18:29:06.631Z,99.90
2023-01-08T18:32:10.694Z,99.90
2023-01-08T18:35:16.024Z,99.90
2023-01-08T18:38:20.058Z,99.90
2023-01-08T18:41:41.409Z,99.90
2023-01-08T18:44:46.733Z,99.90
2023-01-08T18:47:54.788Z,99.90
2023-01-08T18:51:03.852Z,99.90
2023-01-08T18:54:08.834Z,99.90
2023-01-08T18:57:12.904Z,99.90
2023-01-08T19:00:18.979Z,99.90
2023-01-08T19:03:22.769Z,99.90
2023-01-08T19:06:27.989Z,99.90
2023-01-08T19:09:31.703Z,99.90
2023-01-08T19:12:35.553Z,99.90
2023-01-08T19:15:41.359Z,99.90
2023-01-08T19:18:48.648Z,99.90
2023-01-08T19:21:52.728Z,99.90
2023-01-08T19:24:57.379Z,99.90
2023-01-08T19:28:01.132Z,99.90
2023-01-08T19:31:06.817Z,99.90
2023-01-08T19:34:13.332Z,99.90
2023-01-08T19:37:17.617Z,99.90
2023-01-08T19:40:21.469Z,99.90
2023-01-08T19:43:42.450Z,99.90
2023-01-08T19:46:48.110Z,99.90
2023-01-08T19:49:52.008Z,99.90
2023-01-08T19:52:56.938Z,99.90
2023-01-08T19:56:05.242Z,99.90
2023-01-08T19:59:09.981Z,99.90
2023-01-08T20:02:15.432Z,99.90
2023-01-08T20:05:22.130Z,99.90
2023-01-08T20:08:25.919Z,99.90
2023-01-08T20:11:30.939Z,99.90
2023-01-08T20:14:35.691Z,99.90
2023-01-08T20:17:42.853Z,99.90
2023-01-08T20:20:48.011Z,99.90
2023-01-08T20:23:59.164Z,99.90
2023-01-08T20:27:03.106Z,99.90
2023-01-08T20:30:09.124Z,99.90
2023-01-08T20:33:17.656Z,99.90
2023-01-08T20:36:24.296Z,99.90
2023-01-08T20:39:28.352Z,99.90
2023-01-08T20:42:34.649Z,99.90
2023-01-08T20:45:42.708Z,99.90
2023-01-08T20:48:48.346Z,99.90
2023-01-08T20:51:58.438Z,99.90
2023-01-08T20:55:03.296Z,99.90
2023-01-08T20:58:06.577Z,99.90
2023-01-08T21:01:12.417Z,99.90
2023-01-08T21:04:18.244Z,99.90
2023-01-08T21:07:21.559Z,99.90
2023-01-08T21:10:25.042Z,99.90
2023-01-08T21:13:28.336Z,99.90
2023-01-08T21:16:34.879Z,99.90
2023-01-08T21:19:39.569Z,99.90
2023-01-08T21:22:43.045Z,99.90
2023-01-08T21:25:46.708Z,99.90
2023-01-08T21:28:50.027Z,99.90
2023-01-08T21:31:53.360Z,99.90
2023-01-08T21:34:57.936Z,99.90
2023-01-08T21:38:01.080Z,99.90
2023-01-08T21:41:05.643Z,99.90
2023-01-08T21:44:30.698Z,99.90
2023-01-08T21:47:33.913Z,99.90
2023-01-08T21:50:38.481Z,99.90
2023-01-08T21:53:40.684Z,99.90
2023-01-08T21:56:43.846Z,99.90
2023-01-08T21:59:49.572Z,99.90
2023-01-08T22:02:52.717Z,99.90
2023-01-08T22:06:01.139Z,99.90
2023-01-08T22:09:04.415Z,99.90
2023-01-08T22:12:08.441Z,99.90
2023-01-08T22:15:12.191Z,99.90
2023-01-08T22:18:15.390Z,99.90
2023-01-08T22:21:19.977Z,99.90
2023-01-08T22:24:23.119Z,99.90
2023-01-08T22:27:26.284Z,99.90
2023-01-08T22:30:29.382Z,99.90
2023-01-08T22:33:32.553Z,99.90
2023-01-08T22:36:37.051Z,99.90
2023-01-08T22:39:40.201Z,99.90
2023-01-08T22:42:44.249Z,99.90
2023-01-08T22:45:53.569Z,99.90
2023-01-08T22:48:56.837Z,99.90
2023-01-08T22:52:01.395Z,99.90
2023-01-08T22:55:04.700Z,99.90
2023-01-08T22:58:08.518Z,99.90
2023-01-08T23:01:13.412Z,99.90
2023-01-08T23:04:16.695Z,99.90
2023-01-08T23:07:21.985Z,99.90
2023-01-08T23:10:25.367Z,99.90
2023-01-08T23:13:28.575Z,99.90
2023-01-08T23:16:31.831Z,99.90
2023-01-08T23:19:35.087Z,99.90
2023-01-08T23:22:39.901Z,99.90
2023-01-08T23:25:43.053Z,99.90
2023-01-08T23:28:48.301Z,99.90
2023-01-08T23:31:51.493Z,99.90
2023-01-08T23:34:54.811Z,99.90
2023-01-08T23:37:59.317Z,99.90
2023-01-08T23:41:05.785Z,99.90
2023-01-08T23:44:12.144Z,99.90
2023-01-08T23:47:15.304Z,99.90
2023-01-08T23:50:18.673Z,99.90
2023-01-08T23:53:23.245Z,99.90
2023-01-08T23:56:26.763Z,99.90
2023-01-08T23:59:30.044Z,99.90
